sensor_id;sensor_type;location;lat;lon;timestamp;P1;durP1;ratioP1;P2;durP2;ratioP2
41572;SDS011;27286;47.870;19.006;2024-01-16T17:45:22;13.15;;;5.65;;
41572;SDS011;27286;47.870;19.006;2024-01-16T17:47:48;13.80;;;7.38;;
41572;SDS011;27286;47.870;19.006;2024-01-16T17:50:13;14.45;;;6.40;;
41572;SDS011;27286;47.870;19.006;2024-01-16T17:52:38;16.38;;;6.55;;
41572;SDS011;27286;47.870;19.006;2024-01-16T17:55:04;20.92;;;9.15;;
41572;SDS011;27286;47.870;19.006;2024-01-16T17:57:31;16.15;;;6.95;;
41572;SDS011;27286;47.870;19.006;2024-01-16T17:59:56;19.15;;;9.13;;
41572;SDS011;27286;47.870;19.006;2024-01-16T18:02:22;35.38;;;16.80;;
41572;SDS011;27286;47.870;19.006;2024-01-16T18:04:48;60.08;;;26.08;;
41572;SDS011;27286;47.870;19.006;2024-01-16T18:07:13;35.00;;;14.95;;
41572;SDS011;27286;47.870;19.006;2024-01-16T18:09:40;123.55;;;51.67;;
41572;SDS011;27286;47.870;19.006;2024-01-16T18:12:07;180.10;;;70.90;;
41572;SDS011;27286;47.870;19.006;2024-01-16T18:14:36;128.90;;;54.25;;
41572;SDS011;27286;47.870;19.006;2024-01-16T18:17:03;77.57;;;38.30;;
41572;SDS011;27286;47.870;19.006;2024-01-16T18:19:29;62.88;;;29.30;;
41572;SDS011;27286;47.870;19.006;2024-01-16T18:21:58;43.95;;;20.77;;
41572;SDS011;27286;47.870;19.006;2024-01-16T18:24:27;39.53;;;19.35;;
41572;SDS011;27286;47.870;19.006;2024-01-16T18:26:53;24.00;;;10.80;;
41572;SDS011;27286;47.870;19.006;2024-01-16T18:29:19;18.90;;;7.70;;
41572;SDS011;27286;47.870;19.006;2024-01-16T18:31:45;29.80;;;13.88;;
41572;SDS011;27286;47.870;19.006;2024-01-16T18:34:11;21.13;;;10.10;;
41572;SDS011;27286;47.870;19.006;2024-01-16T18:36:47;14.35;;;6.72;;
41572;SDS011;27286;47.870;19.006;2024-01-16T18:39:13;13.95;;;5.05;;
41572;SDS011;27286;47.870;19.006;2024-01-16T18:41:43;9.75;;;3.38;;
41572;SDS011;27286;47.870;19.006;2024-01-16T18:44:10;6.85;;;2.92;;
41572;SDS011;27286;47.870;19.006;2024-01-16T18:46:37;6.35;;;2.13;;
41572;SDS011;27286;47.870;19.006;2024-01-16T18:49:03;7.32;;;1.35;;
41572;SDS011;27286;47.870;19.006;2024-01-16T18:51:30;4.97;;;1.55;;
41572;SDS011;27286;47.870;19.006;2024-01-16T18:53:56;6.20;;;1.42;;
41572;SDS011;27286;47.870;19.006;2024-01-16T18:56:21;8.13;;;1.98;;
41572;SDS011;27286;47.870;19.006;2024-01-16T18:58:47;6.30;;;1.65;;
41572;SDS011;27286;47.870;19.006;2024-01-16T19:01:12;4.65;;;1.50;;
41572;SDS011;27286;47.870;19.006;2024-01-16T19:03:38;4.05;;;1.52;;
41572;SDS011;27286;47.870;19.006;2024-01-16T19:06:04;6.47;;;1.42;;
41572;SDS011;27286;47.870;19.006;2024-01-16T19:08:38;8.05;;;1.67;;
41572;SDS011;27286;47.870;19.006;2024-01-16T19:11:04;9.25;;;1.65;;
41572;SDS011;27286;47.870;19.006;2024-01-16T19:13:31;7.75;;;2.03;;
41572;SDS011;27286;47.870;19.006;2024-01-16T19:15:56;8.50;;;2.03;;
41572;SDS011;27286;47.870;19.006;2024-01-16T19:18:22;8.98;;;2.88;;
41572;SDS011;27286;47.870;19.006;2024-01-16T19:20:47;6.45;;;2.17;;
41572;SDS011;27286;47.870;19.006;2024-01-16T19:23:13;6.43;;;1.92;;
41572;SDS011;27286;47.870;19.006;2024-01-16T19:25:38;5.68;;;1.90;;
41572;SDS011;27286;47.870;19.006;2024-01-16T19:28:03;7.82;;;2.35;;
41572;SDS011;27286;47.870;19.006;2024-01-16T19:30:29;6.25;;;2.10;;
41572;SDS011;27286;47.870;19.006;2024-01-16T19:32:54;7.75;;;2.15;;
41572;SDS011;27286;47.870;19.006;2024-01-16T19:35:21;15.45;;;7.55;;
41572;SDS011;27286;47.870;19.006;2024-01-16T19:37:46;20.15;;;10.27;;
41572;SDS011;27286;47.870;19.006;2024-01-16T19:40:12;33.15;;;15.55;;
41572;SDS011;27286;47.870;19.006;2024-01-16T19:42:42;25.30;;;11.55;;
41572;SDS011;27286;47.870;19.006;2024-01-16T19:45:10;9.25;;;3.30;;
41572;SDS011;27286;47.870;19.006;2024-01-16T19:47:38;3.35;;;1.30;;
41572;SDS011;27286;47.870;19.006;2024-01-16T19:50:05;5.15;;;1.00;;
41572;SDS011;27286;47.870;19.006;2024-01-16T19:52:34;21.10;;;7.57;;
41572;SDS011;27286;47.870;19.006;2024-01-16T19:55:01;78.63;;;35.85;;
41572;SDS011;27286;47.870;19.006;2024-01-16T19:57:30;69.43;;;35.80;;
41572;SDS011;27286;47.870;19.006;2024-01-16T19:59:56;62.85;;;30.40;;
41572;SDS011;27286;47.870;19.006;2024-01-16T20:02:22;57.05;;;25.80;;
41572;SDS011;27286;47.870;19.006;2024-01-16T20:04:48;75.20;;;34.67;;
41572;SDS011;27286;47.870;19.006;2024-01-16T20:07:14;76.05;;;33.10;;
41572;SDS011;27286;47.870;19.006;2024-01-16T20:09:39;68.90;;;32.17;;
41572;SDS011;27286;47.870;19.006;2024-01-16T20:12:05;51.35;;;23.55;;
41572;SDS011;27286;47.870;19.006;2024-01-16T20:14:31;46.20;;;21.05;;
41572;SDS011;27286;47.870;19.006;2024-01-16T20:16:58;42.47;;;18.98;;
41572;SDS011;27286;47.870;19.006;2024-01-16T20:19:26;40.15;;;17.13;;
41572;SDS011;27286;47.870;19.006;2024-01-16T20:21:51;25.88;;;12.05;;
41572;SDS011;27286;47.870;19.006;2024-01-16T20:24:17;22.25;;;10.30;;
41572;SDS011;27286;47.870;19.006;2024-01-16T20:26:43;25.17;;;12.75;;
41572;SDS011;27286;47.870;19.006;2024-01-16T20:29:08;38.63;;;16.98;;
41572;SDS011;27286;47.870;19.006;2024-01-16T20:31:35;80.45;;;35.42;;
41572;SDS011;27286;47.870;19.006;2024-01-16T20:34:01;102.75;;;43.42;;
41572;SDS011;27286;47.870;19.006;2024-01-16T20:36:27;103.97;;;44.75;;
41572;SDS011;27286;47.870;19.006;2024-01-16T20:38:52;97.63;;;42.67;;
41572;SDS011;27286;47.870;19.006;2024-01-16T20:41:17;89.85;;;41.28;;
